M I D A S
Marine Information and Data Acquisition System
Tripno 454 of the Zeeleeuw from 2003-03-24 07:33:44 to 2003-03-24 16:04:33
Back to CruiseResearch ActivitiesStationsMapUnderway DataData graphs

EquipmentUnitsComment
TimeDGPSUTC
LatitudeDGPSDM.mWGS84
LongitudeDGPSDM.mWGS84
HeadingGyrodeg 
SOGDGPSknotsSpeed over ground
COGDGPSdegCourse over ground
DepthEcho soundermeters200 kHz
Missing or incorrect values are displayed as -999
Navigation data collected by the RV Zeeleeuw from 2003-03-24 07:33:44 to 2003-03-24 16:04:33
Time Latitude Longitude Heading SOG COG Depth
2003-03-24 07:34:47 51°13.598 2°56.105 119.8 0.1 201 8.5
2003-03-24 07:35:47 51°13.599 2°56.094 111 1.3 293 8.7
2003-03-24 07:36:47 51°13.616 2°56.023 106.7 2.7 286 10.2
2003-03-24 07:37:48 51°13.63 2°55.978 120.9 3.1 295 -999
2003-03-24 07:38:48 51°13.667 2°55.874 119.3 4.9 299 -999
2003-03-24 07:39:47 51°13.692 2°55.765 96.9 4 281 5.3
2003-03-24 07:40:47 51°13.702 2°55.73 44.6 1.1 17 11.6
2003-03-24 07:41:47 51°13.741 2°55.717 338.7 3.1 337 9.1
2003-03-24 07:42:47 51°13.802 2°55.662 333.7 5.4 328 10.7
2003-03-24 07:43:47 51°13.898 2°55.584 340.4 7.2 335 10.5
2003-03-24 07:44:47 51°14.012 2°55.504 341.1 7.6 336 10.3
2003-03-24 07:45:47 51°14.127 2°55.419 338.9 7.9 335 10.3
2003-03-24 07:46:47 51°14.25 2°55.277 319.9 9.8 316 10.4
2003-03-24 07:47:47 51°14.36 2°55.075 315.3 10.2 310 10.9
2003-03-24 07:48:47 51°14.49 2°54.873 333.8 11.6 326 10.4
2003-03-24 07:49:47 51°14.662 2°54.707 338.3 12.3 332 9.9
2003-03-24 07:50:47 51°14.848 2°54.558 340.3 12.9 333 9.6
2003-03-24 07:51:47 51°15.04 2°54.406 339 12.8 333 9
2003-03-24 07:52:47 51°15.23 2°54.252 339 12.9 333 9.5
2003-03-24 07:53:47 51°15.434 2°54.092 340.5 14 334 10.1
2003-03-24 07:54:47 51°15.644 2°53.921 338.2 14.2 332 11
2003-03-24 07:55:47 51°15.85 2°53.735 336.8 14.3 331 11.7
2003-03-24 07:56:47 51°16.064 2°53.57 340 14.3 334 12.3
2003-03-24 07:57:47 51°16.279 2°53.409 340.7 14.2 335 12.5
2003-03-24 07:58:47 51°16.492 2°53.246 340.7 14.2 335 12.6
2003-03-24 07:59:47 51°16.7 2°53.072 336 14.1 330 11.7
2003-03-24 08:00:47 51°16.904 2°52.89 335.8 13.7 331 9.2
2003-03-24 08:01:46 51°17.108 2°52.711 335.9 14.4 331 10.2
2003-03-24 08:02:46 51°17.312 2°52.52 330.8 14.3 326 10.2
2003-03-24 08:03:46 51°17.497 2°52.284 323.8 14.2 319 10.7
2003-03-24 08:04:47 51°17.659 2°52.002 313.6 14.2 309 10.6
2003-03-24 08:05:47 51°17.799 2°51.698 311.1 14.2 306 10.4
2003-03-24 08:06:47 51°17.936 2°51.387 310.6 14.3 306 11
2003-03-24 08:07:47 51°18.073 2°51.075 309.5 14.4 305 12.4
2003-03-24 08:08:47 51°18.208 2°50.763 308.6 14.3 304 13.4
2003-03-24 08:09:46 51°18.339 2°50.453 308.7 14.4 304 14.2
2003-03-24 08:10:47 51°18.475 2°50.133 308.6 14.3 304 14.4
2003-03-24 08:11:47 51°18.608 2°49.821 309.1 14.2 304 13.3
2003-03-24 08:12:47 51°18.741 2°49.508 309.1 14.2 304 10.9
2003-03-24 08:13:47 51°18.875 2°49.193 309.5 14.5 304 11.3
2003-03-24 08:14:47 51°19.01 2°48.875 309.3 14.6 304 13.7
2003-03-24 08:15:47 51°19.146 2°48.556 309 14.4 304 16
2003-03-24 08:16:47 51°19.279 2°48.239 309.3 14.4 305 18.6
2003-03-24 08:17:47 51°19.416 2°47.922 309.3 14.5 305 20.9
2003-03-24 08:18:47 51°19.555 2°47.607 309.1 14.5 305 21.9
2003-03-24 08:19:47 51°19.688 2°47.295 308.4 14.1 304 21.8
2003-03-24 08:20:47 51°19.814 2°46.98 307.3 14.1 302 20.7
2003-03-24 08:21:48 51°19.941 2°46.655 306.2 14.2 302 18
2003-03-24 08:22:47 51°20.053 2°46.327 297.7 14.3 294 13.8
2003-03-24 08:23:47 51°20.135 2°45.97 290.3 14.4 287 13.8
2003-03-24 08:24:47 51°20.197 2°45.603 289.5 14.5 286 20.4
2003-03-24 08:25:47 51°20.262 2°45.236 289.6 14.5 286 23.2
2003-03-24 08:26:47 51°20.322 2°44.867 285.8 14.2 282 25
2003-03-24 08:27:47 51°20.371 2°44.501 287 14.2 283 26
2003-03-24 08:28:47 51°20.426 2°44.133 287 14.2 284 27.2
2003-03-24 08:29:48 51°20.484 2°43.761 286.6 14.1 284 27.2
2003-03-24 08:30:47 51°20.537 2°43.4 287 14.3 283 26.1
2003-03-24 08:31:47 51°20.592 2°43.031 287.2 14.3 283 24.2
2003-03-24 08:32:47 51°20.647 2°42.661 286.8 14.5 283 21.6
2003-03-24 08:33:47 51°20.704 2°42.288 287.4 14.6 284 18.6
2003-03-24 08:34:48 51°20.766 2°41.908 291.1 14.7 287 20.5
2003-03-24 08:35:47 51°20.878 2°41.581 321.3 14.4 314 23.1
2003-03-24 08:36:48 51°21.106 2°41.487 3.9 14.4 356 23.9
2003-03-24 08:37:48 51°21.344 2°41.462 4 14.4 356 24.8
2003-03-24 08:38:48 51°21.584 2°41.439 3.8 14.5 356 25.1
2003-03-24 08:39:47 51°21.82 2°41.422 4.3 14.6 358 26.3
2003-03-24 08:40:48 51°22.065 2°41.406 4.1 14.5 358 26.5
2003-03-24 08:41:48 51°22.307 2°41.394 4.4 14.6 359 26.4
2003-03-24 08:42:48 51°22.525 2°41.536 41.3 14.3 34 29.3
2003-03-24 08:43:48 51°22.707 2°41.782 50.1 14.4 44 27.1
2003-03-24 08:44:48 51°22.886 2°42.047 50.6 14.3 44 26.9
2003-03-24 08:45:48 51°23.056 2°42.309 50.6 14.2 44 26.1
2003-03-24 08:46:48 51°23.239 2°42.545 38.3 14.3 32 25.8
2003-03-24 08:47:47 51°23.458 2°42.67 17.7 14.3 12 23.1
2003-03-24 08:48:47 51°23.692 2°42.626 348.2 14.3 343 27.1
2003-03-24 08:49:47 51°23.905 2°42.455 335.3 14.4 330 24.5
2003-03-24 08:50:48 51°24.117 2°42.265 336.8 14.4 331 24.9
2003-03-24 08:51:47 51°24.325 2°42.09 337.7 14.3 332 27
2003-03-24 08:52:48 51°24.54 2°41.916 338.9 14.2 334 25.9
2003-03-24 08:53:48 51°24.752 2°41.756 339 14.2 335 23
2003-03-24 08:54:48 51°24.969 2°41.598 339.5 14.3 335 25.3
2003-03-24 08:55:47 51°25.18 2°41.439 339.3 14.3 335 25.9
2003-03-24 08:56:47 51°25.396 2°41.277 340 14.3 335 22.9
2003-03-24 08:57:48 51°25.617 2°41.114 338.9 14.4 334 26.9
2003-03-24 08:58:48 51°25.803 2°40.878 316.5 14.2 314 27.9
2003-03-24 08:59:48 51°25.954 2°40.586 312.9 14.3 309 29.6
2003-03-24 09:00:47 51°26.105 2°40.298 313.7 14.4 310 30.3
2003-03-24 09:01:47 51°26.257 2°40.003 314.5 14.4 310 31.4
2003-03-24 09:02:48 51°26.413 2°39.706 314.6 14.3 310 30.9
2003-03-24 09:03:47 51°26.547 2°39.404 301.9 14.1 298 35
2003-03-24 09:04:47 51°26.65 2°39.064 298.6 14.1 296 32.1
2003-03-24 09:05:48 51°26.755 2°38.721 299.3 14.2 296 32
2003-03-24 09:06:46 51°26.856 2°38.394 299.3 14.2 296 33.1
2003-03-24 09:07:47 51°26.961 2°38.051 299.3 14.2 296 32.7
2003-03-24 09:08:48 51°27.07 2°37.708 299.7 14.1 297 31.8
2003-03-24 09:09:48 51°27.177 2°37.372 299.7 14.2 296 32
2003-03-24 09:10:48 51°27.283 2°37.035 300.1 14.2 296 31.4
2003-03-24 09:11:48 51°27.39 2°36.696 300.2 14.1 297 31.9
2003-03-24 09:12:48 51°27.494 2°36.359 300.7 14.2 296 32.1
2003-03-24 09:13:47 51°27.598 2°36.024 300 14.1 296 31.2
2003-03-24 09:14:48 51°27.702 2°35.68 300.1 14.2 296 24.7
2003-03-24 09:15:47 51°27.824 2°35.364 311 14.3 305 29
2003-03-24 09:16:48 51°27.981 2°35.075 318.9 14.1 315 30.2
2003-03-24 09:17:48 51°28.164 2°34.842 332.6 14.3 328 33.7
2003-03-24 09:18:48 51°28.389 2°34.71 352.9 14.4 346 34.1
2003-03-24 09:19:48 51°28.624 2°34.73 21.8 14.4 15 36.1
2003-03-24 09:20:48 51°28.831 2°34.915 43.2 14.3 36 35.9
2003-03-24 09:21:48 51°28.999 2°35.18 54.2 14.2 47 34.5
2003-03-24 09:22:48 51°29.15 2°35.469 59 14.1 52 35.6
2003-03-24 09:23:48 51°29.282 2°35.778 63.6 14 57 35.2
2003-03-24 09:24:48 51°29.396 2°36.103 66.8 14 61 31.2
2003-03-24 09:25:48 51°29.507 2°36.429 67.5 13.8 61 27.7
2003-03-24 09:26:47 51°29.609 2°36.75 68.2 13.6 62 28.5
2003-03-24 09:27:48 51°29.715 2°37.074 68.9 13.6 63 22.4
2003-03-24 09:28:48 51°29.818 2°37.397 68.8 13.5 63 25.8
2003-03-24 09:29:48 51°29.92 2°37.722 69.2 13.7 64 33.9
2003-03-24 09:30:48 51°30.026 2°38.049 67.6 13.8 61 35.9
2003-03-24 09:31:48 51°30.132 2°38.377 69.5 13.8 62 37.1
2003-03-24 09:32:48 51°30.212 2°38.643 78.3 8 68 37
2003-03-24 09:33:48 51°30.226 2°38.782 100.7 4.2 89 37.8
2003-03-24 09:34:48 51°30.219 2°38.867 115.2 2.7 102 36.3
2003-03-24 09:35:48 51°30.202 2°38.955 110.9 5.9 104 39
2003-03-24 09:36:48 51°30.26 2°39.205 64.8 12.6 58 39.3
2003-03-24 09:37:48 51°30.435 2°39.42 34.4 13.9 27 38.1
2003-03-24 09:38:48 51°30.652 2°39.559 26.6 14.1 19 38.1
2003-03-24 09:39:48 51°30.874 2°39.682 26.8 14.2 20 38.2
2003-03-24 09:40:48 51°31.098 2°39.811 26.8 14.3 19 37.8
2003-03-24 09:41:48 51°31.327 2°39.926 23 14.4 16 33.5
2003-03-24 09:42:48 51°31.563 2°39.972 4 14.5 358 36.2
2003-03-24 09:43:48 51°31.802 2°39.926 359.2 14.5 353 37.3
2003-03-24 09:44:48 51°32.043 2°39.895 1.9 14.5 356 37
2003-03-24 09:45:48 51°32.285 2°39.869 1.8 14.5 356 36.8
2003-03-24 09:46:48 51°32.52 2°39.843 1.8 14.1 356 37.6
2003-03-24 09:47:48 51°32.754 2°39.82 2.4 14.1 357 37.1
2003-03-24 09:48:48 51°32.986 2°39.798 2.2 14 357 36.7
2003-03-24 09:49:48 51°33.218 2°39.773 1.5 14 355 36.2
2003-03-24 09:50:48 51°33.45 2°39.746 2.3 14 356 33.3
2003-03-24 09:51:48 51°33.683 2°39.716 2.1 14.1 355 21.3
2003-03-24 09:52:48 51°33.917 2°39.678 2.2 14.2 354 13.1
2003-03-24 09:53:48 51°34.155 2°39.642 1.9 14.4 354 16.5
2003-03-24 09:54:48 51°34.395 2°39.607 1.8 14.4 354 22.3
2003-03-24 09:55:48 51°34.631 2°39.575 2.2 14.3 355 26
2003-03-24 09:56:48 51°34.865 2°39.541 2.3 14.2 355 26.2
2003-03-24 09:57:48 51°35.101 2°39.507 2 14.1 355 27.8
2003-03-24 09:58:48 51°35.336 2°39.477 2.3 14.1 355 29.6
2003-03-24 09:59:48 51°35.568 2°39.444 2.3 14.1 355 30.1
2003-03-24 10:00:47 51°35.802 2°39.417 3.6 14 356 31.9
2003-03-24 10:01:48 51°36.036 2°39.407 6.5 13.9 359 32
2003-03-24 10:02:48 51°36.268 2°39.413 9.6 13.9 2 32.9
2003-03-24 10:03:48 51°36.5 2°39.433 10.6 14 4 33.2
2003-03-24 10:04:48 51°36.733 2°39.457 10.3 14 4 33.9
2003-03-24 10:05:48 51°36.964 2°39.48 10.5 13.9 4 34.9
2003-03-24 10:06:48 51°37.19 2°39.549 20.6 13.9 14 35.4
2003-03-24 10:07:47 51°37.403 2°39.664 29.7 13.8 24 34.8
2003-03-24 10:08:48 51°37.616 2°39.823 31.5 13.8 25 34.5
2003-03-24 10:09:48 51°37.822 2°39.978 30.7 13.8 25 33.6
2003-03-24 10:10:47 51°38.016 2°40.157 43.2 13.7 36 32
2003-03-24 10:11:48 51°38.161 2°40.437 66.2 13.5 61 28.5
2003-03-24 10:12:47 51°38.222 2°40.775 84.1 13.3 80 23.2
2003-03-24 10:13:47 51°38.258 2°41.122 83.6 13.3 80 20.8
2003-03-24 10:14:47 51°38.297 2°41.47 85.9 13.2 81 20.2
2003-03-24 10:15:47 51°38.29 2°41.817 104.5 13.2 101 24.1
2003-03-24 10:16:48 51°38.193 2°42.147 125.1 13.6 123 31.8
2003-03-24 10:17:47 51°38.071 2°42.447 123.4 13.7 120 32.5
2003-03-24 10:18:48 51°37.966 2°42.779 117.9 13.7 114 35.5
2003-03-24 10:19:48 51°37.878 2°43.114 116.8 13.6 113 35
2003-03-24 10:20:47 51°37.799 2°43.448 110 13.6 106 33.8
2003-03-24 10:21:48 51°37.785 2°43.813 90.7 13.4 87 33.9
2003-03-24 10:22:48 51°37.851 2°44.156 71 13.5 66 31.3
2003-03-24 10:23:48 51°37.972 2°44.458 55.2 13.4 50 33.7
2003-03-24 10:24:48 51°38.148 2°44.68 41.2 13.5 35 33.8
2003-03-24 10:25:48 51°38.341 2°44.867 37 13.6 30 33.4
2003-03-24 10:26:48 51°38.538 2°45.042 34.2 13.5 28 34.9
2003-03-24 10:27:48 51°38.736 2°45.213 31.8 13.5 25 31.7
2003-03-24 10:28:48 51°38.951 2°45.322 16.3 13.6 11 35
2003-03-24 10:29:47 51°39.17 2°45.279 349.7 13.6 342 33.3
2003-03-24 10:30:48 51°39.359 2°45.067 322.1 13.8 316 36.1
2003-03-24 10:31:48 51°39.495 2°44.765 310.5 14 305 33.7
2003-03-24 10:32:48 51°39.633 2°44.461 311.2 14 306 37.4
2003-03-24 10:33:48 51°39.774 2°44.164 312.4 14.1 307 36.8
2003-03-24 10:34:48 51°39.897 2°43.845 310.1 14 303 34.1
2003-03-24 10:35:48 51°40.032 2°43.536 311.3 14 304 35.6
2003-03-24 10:36:48 51°40.164 2°43.223 311.3 14.1 304 33.3
2003-03-24 10:37:48 51°40.294 2°42.914 311.3 14.1 304 32
2003-03-24 10:38:48 51°40.425 2°42.606 312 14.2 305 31.2
2003-03-24 10:39:47 51°40.557 2°42.298 312.3 14.2 305 31.5
2003-03-24 10:40:47 51°40.689 2°41.986 311.7 14.1 304 31.6
2003-03-24 10:41:48 51°40.824 2°41.67 313.1 14.1 305 32.9
2003-03-24 10:42:48 51°40.962 2°41.364 313.5 14.1 306 32.6
2003-03-24 10:43:48 51°41.098 2°41.055 313.1 14.1 305 32.1
2003-03-24 10:44:48 51°41.235 2°40.746 313.1 14 305 35.5
2003-03-24 10:45:48 51°41.37 2°40.441 313.2 14 305 37.2
2003-03-24 10:46:48 51°41.505 2°40.137 312.9 14 305 38.7
2003-03-24 10:47:48 51°41.641 2°39.836 313.3 13.9 306 40.9
2003-03-24 10:48:48 51°41.776 2°39.535 312.9 13.9 305 36
2003-03-24 10:49:48 51°41.911 2°39.234 313.2 13.8 305 41.9
2003-03-24 10:50:48 51°42.045 2°38.931 313.4 13.9 306 41.3
2003-03-24 10:51:47 51°42.177 2°38.633 313.2 13.9 305 36.8
2003-03-24 10:52:48 51°42.31 2°38.319 306.2 13.9 300 37.4
2003-03-24 10:53:48 51°42.391 2°37.968 287 13.9 281 35.6
2003-03-24 10:54:48 51°42.355 2°37.602 258.7 14.2 254 34.7
2003-03-24 10:55:48 51°42.276 2°37.242 248.9 14.3 245 32.9
2003-03-24 10:56:47 51°42.147 2°36.924 237.3 14.5 234 27.1
2003-03-24 10:57:48 51°41.996 2°36.613 232.8 14.6 229 24.5
2003-03-24 10:58:48 51°41.838 2°36.317 232.8 14.6 230 25.5
2003-03-24 10:59:48 51°41.679 2°36.021 231.5 14.8 228 22.7
2003-03-24 11:00:48 51°41.517 2°35.722 232.4 14.8 229 25.4
2003-03-24 11:01:48 51°41.351 2°35.436 230.2 14.7 227 30.1
2003-03-24 11:02:48 51°41.184 2°35.151 231 14.7 227 32.2
2003-03-24 11:03:48 51°41.016 2°34.865 230.5 14.7 226 34.3
2003-03-24 11:04:48 51°40.849 2°34.58 231 14.7 227 34
2003-03-24 11:05:48 51°40.68 2°34.294 231.4 14.8 227 37.5
2003-03-24 11:06:48 51°40.512 2°34.006 231.2 14.7 227 38.4
2003-03-24 11:07:47 51°40.346 2°33.724 230.5 14.7 226 40.2
2003-03-24 11:08:48 51°40.172 2°33.439 229.9 14.6 226 39.5
2003-03-24 11:09:48 51°39.998 2°33.16 228.1 14.7 224 38.6
2003-03-24 11:10:48 51°39.82 2°32.892 225.1 14.6 222 39.8
2003-03-24 11:11:48 51°39.643 2°32.625 227 14.6 224 36.9
2003-03-24 11:12:48 51°39.467 2°32.353 227.1 14.6 224 37.1
2003-03-24 11:13:48 51°39.289 2°32.082 226.2 14.7 223 38.8
2003-03-24 11:14:48 51°39.111 2°31.812 225.2 14.8 222 35.7
2003-03-24 11:15:48 51°38.927 2°31.549 225 14.8 222 34.8
2003-03-24 11:16:48 51°38.747 2°31.284 225.6 14.9 223 32.1
2003-03-24 11:17:48 51°38.566 2°31.016 225.5 14.9 223 36.1
2003-03-24 11:18:48 51°38.382 2°30.75 224.2 14.8 222 33.7
2003-03-24 11:19:48 51°38.196 2°30.488 224 14.9 221 33.1
2003-03-24 11:20:48 51°38.01 2°30.225 224.2 14.9 221 35.3
2003-03-24 11:21:48 51°37.823 2°29.964 222.9 14.9 220 35.5
2003-03-24 11:22:48 51°37.635 2°29.704 223.3 15 221 35.1
2003-03-24 11:23:48 51°37.445 2°29.444 223.3 14.9 221 35.1
2003-03-24 11:24:48 51°37.253 2°29.182 223.4 15 221 35.8
2003-03-24 11:25:48 51°37.062 2°28.927 221.7 15 220 35.7
2003-03-24 11:26:48 51°36.87 2°28.679 221 15 218 36.2
2003-03-24 11:27:48 51°36.675 2°28.429 221.3 15.1 219 36.2
2003-03-24 11:28:48 51°36.476 2°28.179 219.9 15.2 217 35.3
2003-03-24 11:29:48 51°36.286 2°27.944 219.7 12.2 217 35.3
2003-03-24 11:30:48 51°36.191 2°27.787 242.6 6.4 234 34.7
2003-03-24 11:31:48 51°36.152 2°27.672 257.7 4.2 245 34.8
2003-03-24 11:32:48 51°36.114 2°27.553 242.1 7.4 237 35.6
2003-03-24 11:33:48 51°35.98 2°27.396 214.6 11.1 213 35.1
2003-03-24 11:34:48 51°35.847 2°27.243 218.8 8.2 216 35.1
2003-03-24 11:35:48 51°35.755 2°27.142 218 5.8 215 35.5
2003-03-24 11:36:48 51°35.688 2°27.068 215.8 4.3 213 35.3
2003-03-24 11:37:48 51°35.636 2°27.018 209 3.5 209 35.1
2003-03-24 11:38:48 51°35.542 2°26.926 218.9 10.8 216 35.2
2003-03-24 11:39:48 51°35.428 2°26.77 230.1 7 224 36
2003-03-24 11:40:48 51°35.368 2°26.661 242.3 4.7 232 36.1
2003-03-24 11:41:48 51°35.296 2°26.54 221.2 10 217 37
2003-03-24 11:42:48 51°35.118 2°26.337 218.8 11.9 216 36.2
2003-03-24 11:43:48 51°34.995 2°26.184 219 9.9 216 35
2003-03-24 11:44:47 51°34.848 2°26.022 217.3 10.1 215 36.8
2003-03-24 11:45:48 51°34.743 2°25.902 216.7 6.4 215 37.9
2003-03-24 11:46:47 51°34.669 2°25.836 203.6 4.6 206 37.6
2003-03-24 11:47:48 51°34.609 2°25.799 189.4 3.7 196 37.4
2003-03-24 11:48:48 51°34.528 2°25.774 187.5 7.2 190 37.6
2003-03-24 11:49:48 51°34.362 2°25.706 197.9 12 198 36.7
2003-03-24 11:50:48 51°34.167 2°25.547 212.9 13.8 212 34.8
2003-03-24 11:51:48 51°33.974 2°25.341 218.3 14 217 35.1
2003-03-24 11:52:48 51°33.785 2°25.119 218.2 14 217 34.6
2003-03-24 11:53:48 51°33.598 2°24.897 218.1 14 216 34
2003-03-24 11:54:48 51°33.408 2°24.686 216.2 14 215 33.4
2003-03-24 11:55:48 51°33.216 2°24.475 215.6 14 214 33.3
2003-03-24 11:56:48 51°33.024 2°24.264 216.2 14 214 31.1
2003-03-24 11:57:47 51°32.836 2°24.056 216.2 13.9 215 32
2003-03-24 11:58:48 51°32.629 2°23.894 193.2 13.6 194 32
2003-03-24 11:59:48 51°32.41 2°23.912 161.2 13.1 165 32
2003-03-24 12:00:48 51°32.233 2°24.083 137.1 11.3 142 31.3
2003-03-24 12:01:48 51°32.139 2°24.214 120.4 5.8 134 30.4
2003-03-24 12:02:48 51°32.1 2°24.304 98.9 3.3 121 31.4
2003-03-24 12:03:48 51°32.085 2°24.363 81.2 2 108 32.8
2003-03-24 12:04:48 51°32.081 2°24.403 69.4 1.2 100 32.9
2003-03-24 12:05:48 51°32.078 2°24.428 59.1 0.8 91 33.1
2003-03-24 12:06:48 51°32.077 2°24.443 50.9 0.4 88 33.5
2003-03-24 12:07:48 51°32.083 2°24.456 48.9 1.6 53 33.7
2003-03-24 12:08:48 51°32.106 2°24.566 79.8 6.1 83 33.6
2003-03-24 12:09:47 51°32.058 2°24.749 126.7 8.7 133 34.2
2003-03-24 12:10:48 51°31.908 2°24.895 144.6 11.6 150 36.3
2003-03-24 12:11:48 51°31.716 2°25.052 153.7 13.6 157 36.9
2003-03-24 12:12:48 51°31.495 2°25.184 154.5 14.5 159 37.2
2003-03-24 12:13:48 51°31.269 2°25.323 154.6 14.7 158 39.4
2003-03-24 12:14:48 51°31.043 2°25.467 154.8 14.9 159 39.6
2003-03-24 12:15:48 51°30.814 2°25.609 153.5 14.8 158 39.2
2003-03-24 12:16:48 51°30.585 2°25.757 153.2 15 159 37.8
2003-03-24 12:17:48 51°30.358 2°25.909 152.4 14.7 157 32.8
2003-03-24 12:18:48 51°30.134 2°26.069 153.4 14.8 156 28.9
2003-03-24 12:19:48 51°29.91 2°26.224 153.4 14.8 157 24.8
2003-03-24 12:20:48 51°29.684 2°26.378 153.4 14.9 157 24.4
2003-03-24 12:21:48 51°29.492 2°26.492 158.5 7.9 163 32.6
2003-03-24 12:22:48 51°29.351 2°26.572 156.5 10.4 161 33.4
2003-03-24 12:23:48 51°29.171 2°26.64 167.7 11.3 171 32.9
2003-03-24 12:24:48 51°28.984 2°26.667 173.5 11.5 177 33.9
2003-03-24 12:25:48 51°28.794 2°26.684 174.7 11.5 178 34
2003-03-24 12:26:48 51°28.599 2°26.678 180.8 11.6 184 34.1
2003-03-24 12:27:48 51°28.407 2°26.637 193 11.7 194 34.5
2003-03-24 12:28:48 51°28.219 2°26.545 197.1 11.8 197 34.4
2003-03-24 12:29:48 51°28.078 2°26.475 195.4 7.2 197 34.1
2003-03-24 12:30:48 51°27.987 2°26.436 187.3 5 192 33.9
2003-03-24 12:31:48 51°27.887 2°26.406 186.3 7.4 190 34
2003-03-24 12:32:48 51°27.733 2°26.363 189.1 10.7 191 33.6
2003-03-24 12:33:48 51°27.554 2°26.306 189.4 11 191 33.5
2003-03-24 12:34:48 51°27.426 2°26.256 194.2 6.5 197 33.1
2003-03-24 12:35:48 51°27.349 2°26.197 207 4.8 209 32.9
2003-03-24 12:36:48 51°27.231 2°26.133 188.6 10.2 191 32.8
2003-03-24 12:37:48 51°27.055 2°26.097 182.7 8.4 187 31.9
2003-03-24 12:38:48 51°26.936 2°26.072 185 8.1 189 28.6
2003-03-24 12:39:48 51°26.778 2°26.023 187.6 10.6 190 26
2003-03-24 12:40:48 51°26.59 2°25.974 187 11.6 189 24.5
2003-03-24 12:41:48 51°26.398 2°25.925 187.2 11.8 190 23.3
2003-03-24 12:42:48 51°26.198 2°25.884 186.9 11.8 189 25.8
2003-03-24 12:43:48 51°26.019 2°25.824 187.8 9.2 191 27.4
2003-03-24 12:44:48 51°25.908 2°25.781 188.5 6.1 194 29.8
2003-03-24 12:45:48 51°25.829 2°25.739 193 4.6 200 31.4
2003-03-24 12:46:48 51°25.768 2°25.7 192.6 3.6 201 31.3
2003-03-24 12:47:48 51°25.718 2°25.672 188.5 2.9 200 32.7
2003-03-24 12:48:48 51°25.672 2°25.653 188.1 2.5 202 30.3
2003-03-24 12:49:48 51°25.641 2°25.625 184.5 2.1 199 33
2003-03-24 12:50:48 51°25.611 2°25.604 179.7 1.9 201 32
2003-03-24 12:51:48 51°25.582 2°25.585 176.3 2.1 199 29.2
2003-03-24 12:52:48 51°25.513 2°25.561 189.3 5.6 193 33.5
2003-03-24 12:53:48 51°25.407 2°25.597 136 7 148 34.9
2003-03-24 12:54:48 51°25.291 2°25.747 134.3 9.9 141 33.4
2003-03-24 12:55:48 51°25.164 2°25.925 131.9 10.2 138 33.4
2003-03-24 12:56:48 51°25.038 2°26.108 131.5 10.3 137 34
2003-03-24 12:57:48 51°24.915 2°26.295 130.9 10.1 135 33.9
2003-03-24 12:58:48 51°24.796 2°26.487 132.2 10.2 136 33.4
2003-03-24 12:59:48 51°24.675 2°26.678 132.6 10.1 135 32.7
2003-03-24 13:00:48 51°24.556 2°26.868 132 10.1 135 31.2
2003-03-24 13:01:48 51°24.438 2°27.06 132.4 10.1 134 27.5
2003-03-24 13:02:48 51°24.318 2°27.252 132.2 10 135 18.2
2003-03-24 13:03:48 51°24.199 2°27.437 133 9.9 137 11.8
2003-03-24 13:04:48 51°24.078 2°27.618 131.2 10 137 19.4
2003-03-24 13:05:48 51°23.955 2°27.803 129.8 10.1 136 30.3
2003-03-24 13:06:48 51°23.833 2°27.99 129.6 10.1 136 33.1
2003-03-24 13:07:48 51°23.716 2°28.18 127.7 10 134 33.9
2003-03-24 13:08:48 51°23.606 2°28.376 126.1 9.9 132 34.2
2003-03-24 13:09:48 51°23.499 2°28.578 124.8 9.9 129 34.1
2003-03-24 13:10:48 51°23.394 2°28.781 126.3 10 130 34.1
2003-03-24 13:11:48 51°23.289 2°28.985 126.1 9.9 129 34.1
2003-03-24 13:12:48 51°23.184 2°29.188 126.7 9.9 130 34.1
2003-03-24 13:13:48 51°23.078 2°29.383 126.4 9.8 129 33.6
2003-03-24 13:14:48 51°22.974 2°29.581 126 9.8 129 32.8
2003-03-24 13:15:48 51°22.87 2°29.78 126.2 9.8 129 32.9
2003-03-24 13:16:48 51°22.767 2°29.981 125.4 9.7 129 32.9
2003-03-24 13:17:48 51°22.667 2°30.181 125.5 9.6 129 32.4
2003-03-24 13:18:48 51°22.566 2°30.381 125.7 9.7 129 30.7
2003-03-24 13:19:48 51°22.465 2°30.582 124.8 9.7 128 31.7
2003-03-24 13:20:48 51°22.363 2°30.781 125.1 9.7 129 30.9
2003-03-24 13:21:48 51°22.264 2°30.983 121.5 9.6 125 33.2
2003-03-24 13:22:48 51°22.169 2°31.189 122.2 9.6 126 30.2
2003-03-24 13:23:48 51°22.074 2°31.394 122 9.4 125 30.6
2003-03-24 13:24:48 51°21.98 2°31.601 122.2 9.7 126 31.2
2003-03-24 13:25:48 51°21.885 2°31.809 122.2 9.7 126 28.6
2003-03-24 13:26:48 51°21.788 2°32.019 122.1 9.9 126 27.5
2003-03-24 13:27:48 51°21.69 2°32.229 122.2 9.9 127 23.5
2003-03-24 13:28:48 51°21.59 2°32.443 122.1 10.2 127 20.3
2003-03-24 13:29:48 51°21.487 2°32.66 122.4 10.2 126 20.9
2003-03-24 13:30:48 51°21.388 2°32.884 120.7 10.3 123 24.7
2003-03-24 13:31:48 51°21.289 2°33.109 123.2 10.3 125 29.4
2003-03-24 13:32:48 51°21.19 2°33.33 123.1 9.6 126 30.7
2003-03-24 13:33:48 51°21.113 2°33.459 138.1 5.4 143 31.9
2003-03-24 13:34:48 51°21.036 2°33.559 126.8 6.9 131 31.8
2003-03-24 13:35:48 51°20.952 2°33.763 121.4 10.5 124 31.5
2003-03-24 13:36:48 51°20.876 2°34.033 102.1 11.6 102 31
2003-03-24 13:37:48 51°20.847 2°34.356 98.1 12.6 98 31.8
2003-03-24 13:38:48 51°20.816 2°34.691 98.9 13 99 31.6
2003-03-24 13:39:48 51°20.78 2°34.931 109 6.6 112 32.1
2003-03-24 13:40:48 51°20.732 2°35.031 125.4 4.2 133 28.6
2003-03-24 13:41:48 51°20.694 2°35.199 99.4 8.4 102 30.1
2003-03-24 13:42:48 51°20.662 2°35.441 100 9.5 102 25.9
2003-03-24 13:43:48 51°20.631 2°35.693 100.3 9.7 102 26
2003-03-24 13:44:48 51°20.592 2°35.944 104.2 9.8 106 21.1
2003-03-24 13:45:48 51°20.551 2°36.196 101 9.8 102 20.6
2003-03-24 13:46:48 51°20.511 2°36.449 102.2 9.8 103 21.1
2003-03-24 13:47:48 51°20.47 2°36.7 102.3 9.8 104 21.1
2003-03-24 13:48:48 51°20.429 2°36.955 102 9.9 104 23.2
2003-03-24 13:49:48 51°20.39 2°37.207 102.8 9.3 105 23
2003-03-24 13:50:48 51°20.348 2°37.359 119.4 5 125 22.8
2003-03-24 13:51:48 51°20.301 2°37.475 105.2 6.1 112 20.8
2003-03-24 13:52:48 51°20.268 2°37.691 102 9.9 103 22.5
2003-03-24 13:53:48 51°20.226 2°37.978 102.2 11.6 103 23.4
2003-03-24 13:54:48 51°20.196 2°38.302 92 12.5 92 23.6
2003-03-24 13:55:48 51°20.202 2°38.643 88.5 12.9 87 23.8
2003-03-24 13:56:48 51°20.213 2°38.997 89.8 13.4 88 24.9
2003-03-24 13:57:48 51°20.22 2°39.348 91.1 13.3 88 26.3
2003-03-24 13:58:48 51°20.218 2°39.702 93.7 13.2 92 28.6
2003-03-24 13:59:48 51°20.212 2°39.992 94.7 8.7 93 28.6
2003-03-24 14:00:48 51°20.21 2°40.22 91.9 9.4 90 28.8
2003-03-24 14:01:48 51°20.204 2°40.478 93.1 10 92 29.1
2003-03-24 14:02:47 51°20.202 2°40.744 93.4 10.3 91 28.7
2003-03-24 14:03:48 51°20.199 2°41.026 92.9 10.5 91 21.2
2003-03-24 14:04:48 51°20.193 2°41.305 93.2 10.4 90 20.7
2003-03-24 14:05:48 51°20.187 2°41.576 94.8 10.3 92 19
2003-03-24 14:06:47 51°20.182 2°41.847 94.8 10.4 93 18.5
2003-03-24 14:07:48 51°20.176 2°42.127 94.3 10.4 92 20.4
2003-03-24 14:08:48 51°20.172 2°42.406 94.3 10.4 92 23
2003-03-24 14:09:48 51°20.161 2°42.676 95.2 10.2 93 25.2
2003-03-24 14:10:47 51°20.15 2°42.938 95.5 9.7 93 26.6
2003-03-24 14:11:48 51°20.126 2°43.109 116.8 4.9 116 27.1
2003-03-24 14:12:47 51°20.089 2°43.198 123.4 4.2 124 27.3
2003-03-24 14:13:48 51°20.058 2°43.349 92.8 7.4 93 27.2
2003-03-24 14:14:48 51°20.056 2°43.592 93.8 10.2 91 27.1
2003-03-24 14:15:48 51°20.055 2°43.882 93.3 11.4 90 26.6
2003-03-24 14:16:48 51°20.054 2°44.216 93.8 13 91 23.4
2003-03-24 14:17:48 51°20.054 2°44.574 94.2 13.6 91 25.4
2003-03-24 14:18:48 51°20.049 2°44.877 97.2 8.5 94 24.7
2003-03-24 14:19:48 51°20.03 2°45.056 97.8 8 95 24
2003-03-24 14:20:48 51°20.035 2°45.314 90.1 10.3 87 22.6
2003-03-24 14:21:48 51°20.039 2°45.592 92.1 10.5 89 17.2
2003-03-24 14:22:48 51°20.039 2°45.873 93.1 10.7 91 15.4
2003-03-24 14:23:48 51°20.037 2°46.157 93.6 10.7 92 15.3
2003-03-24 14:24:48 51°20.022 2°46.44 100.9 10.7 98 16.2
2003-03-24 14:25:47 51°19.996 2°46.718 100.5 10.7 98 18.7
2003-03-24 14:26:48 51°19.97 2°47 99.6 10.6 98 21
2003-03-24 14:27:47 51°19.945 2°47.272 101.1 10.6 99 21.9
2003-03-24 14:28:48 51°19.92 2°47.557 100.1 10.6 98 22.9
2003-03-24 14:29:48 51°19.897 2°47.835 100.2 10.5 98 23
2003-03-24 14:30:48 51°19.875 2°48.111 100.4 10.5 98 23.3
2003-03-24 14:31:47 51°19.854 2°48.384 99.9 10.6 97 23.2
2003-03-24 14:32:48 51°19.832 2°48.668 99.8 10.5 97 22.2
2003-03-24 14:33:48 51°19.81 2°48.948 100.7 10.7 97 20.6
2003-03-24 14:34:48 51°19.788 2°49.231 100.2 10.8 97 19.1
2003-03-24 14:35:47 51°19.765 2°49.512 100.7 10.8 98 17.6
2003-03-24 14:36:48 51°19.741 2°49.802 100.1 10.9 97 15.9
2003-03-24 14:37:48 51°19.719 2°50.086 100.1 10.8 97 15.6
2003-03-24 14:38:48 51°19.698 2°50.376 100.4 10.9 97 14.1
2003-03-24 14:39:47 51°19.674 2°50.658 99.7 11 96 13
2003-03-24 14:40:47 51°19.65 2°50.946 100.4 11 98 14.1
2003-03-24 14:41:48 51°19.625 2°51.239 101 10.9 98 16
2003-03-24 14:42:48 51°19.6 2°51.526 99.9 10.9 98 16.4
2003-03-24 14:43:47 51°19.58 2°51.807 96.5 10.8 93 17.1
2003-03-24 14:44:48 51°19.605 2°52.091 79.2 10.6 76 17
2003-03-24 14:45:48 51°19.648 2°52.366 80.2 10.7 77 16.9
2003-03-24 14:46:48 51°19.684 2°52.645 79.6 10.9 77 16.8
2003-03-24 14:47:48 51°19.723 2°52.93 80.5 10.9 78 16.6
2003-03-24 14:48:48 51°19.761 2°53.212 80.5 10.9 77 16.2
2003-03-24 14:49:48 51°19.798 2°53.495 80.5 10.9 78 15.8
2003-03-24 14:50:47 51°19.834 2°53.774 82 10.9 80 15.3
2003-03-24 14:51:47 51°19.866 2°54.064 82 11 80 14.9
2003-03-24 14:52:48 51°19.92 2°54.336 55.3 10.3 54 14
2003-03-24 14:53:48 51°20.068 2°54.398 348.7 9.5 346 15.3
2003-03-24 14:54:48 51°20.156 2°54.213 284 9.2 282 16
2003-03-24 14:55:47 51°20.083 2°54.018 214.2 9.4 208 16.2
2003-03-24 14:56:48 51°19.927 2°53.921 213.3 10.1 208 15.6
2003-03-24 14:57:48 51°19.774 2°53.8 213.3 10.3 208 15.2
2003-03-24 14:58:48 51°19.622 2°53.676 214.4 10.3 208 14.8
2003-03-24 14:59:48 51°19.471 2°53.551 213 10.3 207 14.5
2003-03-24 15:00:48 51°19.321 2°53.422 214.8 10.1 209 14.2
2003-03-24 15:01:48 51°19.173 2°53.289 215 10.2 209 14
2003-03-24 15:02:48 51°19.027 2°53.159 214.9 10 209 13.7
2003-03-24 15:03:48 51°18.88 2°53.036 213 10.1 207 13.6
2003-03-24 15:04:48 51°18.727 2°52.926 210.9 10 204 13.3
2003-03-24 15:05:48 51°18.575 2°52.813 210.9 10 204 13.2
2003-03-24 15:06:48 51°18.42 2°52.712 207.2 10.1 200 13
2003-03-24 15:07:48 51°18.259 2°52.638 200.2 10.2 193 12.9
2003-03-24 15:08:48 51°18.089 2°52.599 195.3 10.3 188 12.5
2003-03-24 15:09:48 51°17.92 2°52.565 195.5 10.3 187 12.4
2003-03-24 15:10:47 51°17.755 2°52.53 195.9 10.2 187 12.2
2003-03-24 15:11:48 51°17.579 2°52.531 187.3 10.2 178 12.4
2003-03-24 15:12:48 51°17.41 2°52.537 187.6 10.2 179 12.3
2003-03-24 15:13:48 51°17.241 2°52.547 187.3 10.1 178 11.9
2003-03-24 15:14:48 51°17.073 2°52.582 176.3 10.3 167 11.5
2003-03-24 15:15:48 51°16.908 2°52.683 166.9 10.6 157 11.6
2003-03-24 15:16:48 51°16.749 2°52.8 163.9 10.8 154 12.5
2003-03-24 15:17:48 51°16.592 2°52.946 154.8 11 145 13.8
2003-03-24 15:18:48 51°16.447 2°53.128 152.7 11.1 143 14.5
2003-03-24 15:19:48 51°16.301 2°53.305 151.5 11.1 141 14.6
2003-03-24 15:20:48 51°16.177 2°53.532 132.6 11.4 123 14.2
2003-03-24 15:21:48 51°16.091 2°53.803 127.2 11.6 116 13.9
2003-03-24 15:22:48 51°16.003 2°54.076 127.6 11.5 118 13.6
2003-03-24 15:23:48 51°15.913 2°54.345 128.2 11.4 119 13.1
2003-03-24 15:24:48 51°15.797 2°54.572 154.5 10.8 142 12.4
2003-03-24 15:25:48 51°15.647 2°54.682 172 8.9 159 11.9
2003-03-24 15:26:48 51°15.538 2°54.76 172 6.4 155 11.6
2003-03-24 15:27:48 51°15.448 2°54.807 186.5 5.3 166 11.4
2003-03-24 15:28:48 51°15.347 2°54.852 176.2 7.1 161 11
2003-03-24 15:29:48 51°15.233 2°54.924 177.6 7.5 160 10.5
2003-03-24 15:30:48 51°15.125 2°54.982 180.7 6.3 160 10.6
2003-03-24 15:31:48 51°15.038 2°55.021 187.8 5.1 166 11.5
2003-03-24 15:32:48 51°14.958 2°55.049 191.4 4.8 169 11.3
2003-03-24 15:33:48 51°14.853 2°55.039 200.5 7.7 189 11.4
2003-03-24 15:34:48 51°14.728 2°55.026 197 6.4 182 11.7
2003-03-24 15:35:48 51°14.64 2°55.024 195.1 4.8 176 11.9
2003-03-24 15:36:48 51°14.566 2°55.05 190.7 4.3 166 11.9
2003-03-24 15:37:48 51°14.48 2°55.062 202.6 6.3 185 12
2003-03-24 15:38:48 51°14.357 2°55.098 156 8.7 147 12.5
2003-03-24 15:39:48 51°14.289 2°55.211 130.6 4.9 125 12.5
2003-03-24 15:40:48 51°14.244 2°55.3 138.7 4.1 131 12.4
2003-03-24 15:41:48 51°14.196 2°55.366 151.3 3.7 146 12.2
2003-03-24 15:42:48 51°14.142 2°55.417 158.3 3.7 153 12
2003-03-24 15:43:48 51°14.083 2°55.459 160.4 4.1 157 12
2003-03-24 15:44:48 51°14.024 2°55.504 160.8 3.8 155 12.4
2003-03-24 15:45:48 51°13.964 2°55.543 161.4 4.1 158 12.4
2003-03-24 15:46:48 51°13.899 2°55.585 159.6 4.3 157 12.4
2003-03-24 15:47:48 51°13.833 2°55.628 161.8 4.2 158 12.6
2003-03-24 15:48:48 51°13.772 2°55.676 148.7 4 147 12.5
2003-03-24 15:49:48 51°13.721 2°55.743 135 4 134 12.9
2003-03-24 15:50:48 51°13.682 2°55.827 125.5 3.9 121 11.9
2003-03-24 15:51:48 51°13.65 2°55.917 126 3.7 122 11.8
2003-03-24 15:52:48 51°13.623 2°55.991 115.1 2.9 114 12
2003-03-24 15:53:48 51°13.61 2°56.057 107.2 2.4 107 11.3
2003-03-24 15:54:48 51°13.603 2°56.091 115.4 0.7 111 10.3
2003-03-24 15:55:48 51°13.6 2°56.1 119 0.2 77 10.4
2003-03-24 15:56:48 51°13.601 2°56.101 122.8 0.1 36 10.3
2003-03-24 15:57:48 51°13.601 2°56.102 127.7   56 10.3
2003-03-24 15:58:48 51°13.601 2°56.102 127.1   241 10.4
2003-03-24 15:59:48 51°13.6 2°56.103 127.1   351 10.1
2003-03-24 16:00:48 51°13.6 2°56.103 126.2   46 9.9
2003-03-24 16:01:48 51°13.601 2°56.103 126.2   47 10.3
2003-03-24 16:02:48 51°13.601 2°56.103 126.3   223 10.3
2003-03-24 16:03:51 51°13.6 2°56.103 126.3   172 10.2